Time;durP1;ratioP1;P1;durP2;ratioP2;P2;SDS_P1;SDS_P2;PMS_P1;PMS_P2;Temp;Humidity;BMP_temperature;BMP_pressure;BME280_temperature;BME280_humidity;BME280_pressure;Samples;Min_cycle;Max_cycle;Signal;HPM_P1;HPM_P2
2022/07/24 00:01:05;;;;;;;9.85;7.50;;;;;;;;;;5075600;28;20039;-74
2022/07/24 00:03:31;;;;;;;11.02;7.22;;;;;;;;;;5074632;28;20047;-75
2022/07/24 00:05:57;;;;;;;8.73;7.15;;;;;;;;;;5074315;28;20044;-74
2022/07/24 00:08:23;;;;;;;9.75;7.22;;;;;;;;;;5075042;28;20044;-74
2022/07/24 00:10:49;;;;;;;10.30;7.05;;;;;;;;;;5074749;28;20046;-74
2022/07/24 00:13:15;;;;;;;8.93;7.20;;;;;;;;;;5075183;28;20036;-74
2022/07/24 00:15:41;;;;;;;10.10;8.10;;;;;;;;;;5057337;28;20540;-74
2022/07/24 00:18:08;;;;;;;11.80;7.65;;;;;;;;;;5044662;28;20043;-74
2022/07/24 00:20:34;;;;;;;11.27;7.72;;;;;;;;;;5074428;28;20056;-74
2022/07/24 00:23:00;;;;;;;9.65;7.72;;;;;;;;;;5074146;28;20044;-74
2022/07/24 00:25:26;;;;;;;9.40;7.15;;;;;;;;;;5074985;28;20484;-74
2022/07/24 00:27:52;;;;;;;9.15;7.20;;;;;;;;;;5061885;28;20040;-74
2022/07/24 00:30:18;;;;;;;10.55;7.10;;;;;;;;;;5058164;28;20036;-74
2022/07/24 00:32:44;;;;;;;12.45;7.78;;;;;;;;;;5074339;28;20036;-73
2022/07/24 00:35:12;;;;;;;9.23;6.72;;;;;;;;;;5074766;28;20047;-74
2022/07/24 00:37:39;;;;;;;10.98;7.30;;;;;;;;;;5091539;28;20039;-74
2022/07/24 00:40:05;;;;;;;11.43;7.18;;;;;;;;;;5057751;28;20119;-74
2022/07/24 00:42:31;;;;;;;10.20;7.32;;;;;;;;;;5074734;28;20051;-73
2022/07/24 00:44:57;;;;;;;11.60;7.15;;;;;;;;;;5057605;28;20039;-74
2022/07/24 00:47:23;;;;;;;9.00;6.82;;;;;;;;;;5073918;28;20047;-74
2022/07/24 00:49:49;;;;;;;8.48;6.88;;;;;;;;;;5080835;28;20051;-74
2022/07/24 00:52:15;;;;;;;10.75;7.00;;;;;;;;;;5055245;28;20484;-74
2022/07/24 00:54:41;;;;;;;11.20;7.32;;;;;;;;;;5057265;28;20044;-72
2022/07/24 00:57:08;;;;;;;8.48;6.63;;;;;;;;;;5057244;28;20131;-73
2022/07/24 00:59:34;;;;;;;10.68;7.45;;;;;;;;;;5038662;28;20037;-74
2022/07/24 01:02:00;;;;;;;11.65;7.13;;;;;;;;;;5073768;28;20369;-74
2022/07/24 01:04:26;;;;;;;9.02;6.80;;;;;;;;;;5057754;28;20423;-74
2022/07/24 01:06:53;;;;;;;9.05;7.35;;;;;;;;;;5073837;28;20040;-73
2022/07/24 01:09:19;;;;;;;8.35;6.90;;;;;;;;;;5073971;28;20035;-74
2022/07/24 01:11:45;;;;;;;8.23;6.93;;;;;;;;;;5051265;28;20036;-74
2022/07/24 01:14:11;;;;;;;9.82;6.38;;;;;;;;;;5074381;28;20039;-74
2022/07/24 01:16:37;;;;;;;10.02;6.80;;;;;;;;;;5069961;28;20036;-74
2022/07/24 01:19:04;;;;;;;9.32;6.85;;;;;;;;;;5068927;28;20036;-74
2022/07/24 01:21:30;;;;;;;9.10;6.85;;;;;;;;;;5073431;28;20133;-74
2022/07/24 01:23:56;;;;;;;9.68;6.53;;;;;;;;;;5073829;28;20445;-74
2022/07/24 01:26:22;;;;;;;10.13;7.25;;;;;;;;;;5074042;28;20415;-74
2022/07/24 01:28:48;;;;;;;8.50;7.15;;;;;;;;;;5073332;28;20059;-74
2022/07/24 01:31:14;;;;;;;9.00;7.00;;;;;;;;;;5073586;28;20087;-73
2022/07/24 01:33:40;;;;;;;10.60;7.07;;;;;;;;;;5073570;28;20036;-74
2022/07/24 01:36:06;;;;;;;10.07;7.50;;;;;;;;;;5057012;28;20499;-72
2022/07/24 01:38:32;;;;;;;8.43;6.95;;;;;;;;;;5074003;28;20044;-73
2022/07/24 01:40:58;;;;;;;10.02;7.20;;;;;;;;;;5056518;28;20131;-74
2022/07/24 01:43:24;;;;;;;11.18;7.38;;;;;;;;;;5073230;28;20055;-74
2022/07/24 01:45:51;;;;;;;8.18;6.63;;;;;;;;;;5072053;28;20036;-74
2022/07/24 01:48:17;;;;;;;9.98;7.25;;;;;;;;;;5056755;28;20043;-73
2022/07/24 01:50:43;;;;;;;9.60;7.10;;;;;;;;;;5091166;28;20075;-73
2022/07/24 01:53:09;;;;;;;9.30;7.22;;;;;;;;;;5056701;28;20764;-74
2022/07/24 01:55:35;;;;;;;10.90;6.80;;;;;;;;;;5074248;28;20086;-72
2022/07/24 01:58:01;;;;;;;8.45;6.72;;;;;;;;;;5073515;28;20047;-72
2022/07/24 02:00:27;;;;;;;12.38;7.57;;;;;;;;;;5091318;28;20501;-73
2022/07/24 02:02:53;;;;;;;8.80;6.93;;;;;;;;;;5054766;28;20044;-74
2022/07/24 02:05:19;;;;;;;9.98;6.60;;;;;;;;;;5068431;28;20091;-74
2022/07/24 02:07:45;;;;;;;10.75;7.15;;;;;;;;;;5071372;28;20032;-74
2022/07/24 02:10:13;;;;;;;8.95;6.70;;;;;;;;;;5077412;28;20044;-74
2022/07/24 02:12:39;;;;;;;10.10;7.10;;;;;;;;;;5072195;28;20047;-74
2022/07/24 02:15:05;;;;;;;10.10;7.15;;;;;;;;;;5077393;28;20036;-73
2022/07/24 02:17:31;;;;;;;9.73;7.05;;;;;;;;;;5069954;28;20592;-71
2022/07/24 02:19:58;;;;;;;9.25;6.80;;;;;;;;;;5074308;28;20084;-74
2022/07/24 02:22:24;;;;;;;11.80;7.63;;;;;;;;;;5076712;28;20044;-73
2022/07/24 02:24:50;;;;;;;10.75;7.60;;;;;;;;;;5077631;28;20046;-72
2022/07/24 02:27:16;;;;;;;11.05;7.05;;;;;;;;;;5070129;28;20094;-73
2022/07/24 02:29:42;;;;;;;10.98;7.20;;;;;;;;;;5074067;28;20044;-74
2022/07/24 02:32:08;;;;;;;10.02;7.53;;;;;;;;;;5060026;28;20067;-74
2022/07/24 02:34:34;;;;;;;11.50;7.10;;;;;;;;;;5073729;28;20048;-74
2022/07/24 02:37:01;;;;;;;9.73;7.50;;;;;;;;;;5072878;28;20064;-74
2022/07/24 02:39:27;;;;;;;9.93;7.43;;;;;;;;;;5076466;28;20039;-74
2022/07/24 02:41:53;;;;;;;9.38;7.43;;;;;;;;;;5077184;28;20040;-74
2022/07/24 02:44:19;;;;;;;9.77;7.45;;;;;;;;;;5076374;28;20076;-71
2022/07/24 02:46:45;;;;;;;11.40;7.50;;;;;;;;;;5067886;28;20127;-73
2022/07/24 02:49:11;;;;;;;12.95;8.02;;;;;;;;;;5073724;28;20043;-73
2022/07/24 02:51:38;;;;;;;9.43;7.28;;;;;;;;;;5060218;28;20526;-72
2022/07/24 02:54:04;;;;;;;9.68;7.43;;;;;;;;;;5053849;28;20043;-73
2022/07/24 02:56:30;;;;;;;10.65;7.63;;;;;;;;;;5060511;28;20488;-73
2022/07/24 02:58:56;;;;;;;11.07;7.88;;;;;;;;;;5076589;28;20399;-74
2022/07/24 03:01:22;;;;;;;10.45;7.93;;;;;;;;;;5076437;28;20039;-73
2022/07/24 03:03:48;;;;;;;12.63;8.20;;;;;;;;;;5075973;28;20058;-73
2022/07/24 03:06:14;;;;;;;11.45;8.57;;;;;;;;;;5076240;28;20046;-74
2022/07/24 03:08:40;;;;;;;11.30;7.80;;;;;;;;;;5076854;28;20458;-72
2022/07/24 03:11:06;;;;;;;10.40;8.35;;;;;;;;;;5076257;28;20119;-74
2022/07/24 03:13:32;;;;;;;11.52;8.25;;;;;;;;;;5076501;28;20055;-73
2022/07/24 03:15:58;;;;;;;10.65;7.90;;;;;;;;;;5053642;28;20072;-73
2022/07/24 03:18:24;;;;;;;10.90;8.70;;;;;;;;;;5070889;28;20460;-73
2022/07/24 03:20:50;;;;;;;11.93;8.35;;;;;;;;;;5072996;28;20135;-72
2022/07/24 03:23:17;;;;;;;11.63;8.40;;;;;;;;;;5075322;28;20134;-74
2022/07/24 03:25:43;;;;;;;11.02;8.27;;;;;;;;;;5075918;28;20122;-74
2022/07/24 03:28:09;;;;;;;11.38;8.80;;;;;;;;;;5053823;28;20043;-72
2022/07/24 03:30:36;;;;;;;10.25;8.43;;;;;;;;;;5077382;28;20389;-74
2022/07/24 03:33:02;;;;;;;12.63;8.48;;;;;;;;;;5059392;28;20078;-74
2022/07/24 03:35:28;;;;;;;13.70;8.48;;;;;;;;;;5086383;28;20036;-74
2022/07/24 03:37:54;;;;;;;13.65;9.23;;;;;;;;;;5076471;28;20397;-73
2022/07/24 03:40:20;;;;;;;12.45;9.63;;;;;;;;;;5075006;28;20053;-73
2022/07/24 03:42:46;;;;;;;15.48;9.18;;;;;;;;;;5093687;28;20036;-72
2022/07/24 03:45:12;;;;;;;14.52;9.23;;;;;;;;;;5075567;28;20468;-72
2022/07/24 03:47:38;;;;;;;12.60;9.07;;;;;;;;;;5058008;28;20101;-74
2022/07/24 03:50:04;;;;;;;11.70;8.50;;;;;;;;;;5075161;28;20124;-74
2022/07/24 03:52:30;;;;;;;12.98;9.38;;;;;;;;;;5075651;28;20043;-74
2022/07/24 03:54:57;;;;;;;13.52;9.07;;;;;;;;;;5093541;28;20072;-73
2022/07/24 03:57:23;;;;;;;12.32;9.48;;;;;;;;;;5074529;28;20032;-74
2022/07/24 03:59:49;;;;;;;11.82;9.13;;;;;;;;;;5055804;28;20033;-74
2022/07/24 04:02:15;;;;;;;12.55;9.00;;;;;;;;;;5067180;28;20075;-74
2022/07/24 04:04:41;;;;;;;11.70;9.30;;;;;;;;;;5076903;28;20040;-74
2022/07/24 04:07:07;;;;;;;12.98;9.48;;;;;;;;;;5073806;28;20044;-74
2022/07/24 04:09:34;;;;;;;12.23;9.15;;;;;;;;;;5084938;28;20503;-74
2022/07/24 04:12:00;;;;;;;11.05;8.52;;;;;;;;;;5075195;28;20044;-72
2022/07/24 04:14:26;;;;;;;13.98;9.40;;;;;;;;;;5073706;28;20060;-74
2022/07/24 04:16:53;;;;;;;11.95;9.45;;;;;;;;;;5073183;28;20064;-74
2022/07/24 04:19:19;;;;;;;12.43;9.30;;;;;;;;;;5066784;28;20044;-74
2022/07/24 04:21:45;;;;;;;13.18;9.50;;;;;;;;;;5044386;28;20048;-73
2022/07/24 04:24:11;;;;;;;13.02;9.73;;;;;;;;;;5074611;28;20086;-73
2022/07/24 04:26:38;;;;;;;12.82;9.05;;;;;;;;;;5075036;28;20077;-74
2022/07/24 04:29:04;;;;;;;11.02;8.95;;;;;;;;;;5092719;28;20032;-73
2022/07/24 04:31:30;;;;;;;13.07;9.13;;;;;;;;;;5074989;28;20577;-73
2022/07/24 04:33:56;;;;;;;13.95;9.27;;;;;;;;;;5074483;28;20055;-72
2022/07/24 04:36:23;;;;;;;11.32;9.35;;;;;;;;;;5057030;28;20093;-72
2022/07/24 04:38:49;;;;;;;14.95;9.98;;;;;;;;;;5075015;28;20032;-74
2022/07/24 04:41:17;;;;;;;14.45;9.57;;;;;;;;;;5074573;28;20123;-73
2022/07/24 04:43:43;;;;;;;14.18;10.00;;;;;;;;;;5074245;28;20439;-72
2022/07/24 04:46:09;;;;;;;14.05;9.07;;;;;;;;;;5057958;28;20052;-73
2022/07/24 04:48:35;;;;;;;14.45;9.38;;;;;;;;;;5074129;28;20044;-74
2022/07/24 04:51:01;;;;;;;11.70;8.60;;;;;;;;;;5073913;28;20047;-72
2022/07/24 04:53:29;;;;;;;11.85;8.57;;;;;;;;;;5074470;28;20051;-73
2022/07/24 04:55:55;;;;;;;11.10;8.75;;;;;;;;;;5074119;28;20066;-74
2022/07/24 04:58:21;;;;;;;11.25;8.77;;;;;;;;;;5063603;28;20039;-73
2022/07/24 05:00:48;;;;;;;12.52;8.55;;;;;;;;;;5073606;28;20089;-72
2022/07/24 05:03:14;;;;;;;13.63;9.10;;;;;;;;;;5073908;28;20036;-72
2022/07/24 05:05:40;;;;;;;12.23;7.95;;;;;;;;;;5073936;28;20047;-74
2022/07/24 05:08:06;;;;;;;13.95;8.77;;;;;;;;;;5074283;28;20032;-73
2022/07/24 05:10:32;;;;;;;12.98;8.50;;;;;;;;;;5057003;28;20040;-74
2022/07/24 05:12:58;;;;;;;13.05;8.63;;;;;;;;;;5074315;28;20112;-75
2022/07/24 05:15:24;;;;;;;12.30;8.88;;;;;;;;;;5073150;28;20046;-74
2022/07/24 05:17:50;;;;;;;11.13;8.73;;;;;;;;;;5070089;28;20032;-72
2022/07/24 05:20:16;;;;;;;10.82;8.40;;;;;;;;;;5058547;28;20054;-74
2022/07/24 05:22:43;;;;;;;13.88;8.60;;;;;;;;;;5074158;28;20051;-74
2022/07/24 05:25:09;;;;;;;11.88;8.75;;;;;;;;;;5070004;28;20462;-74
2022/07/24 05:27:35;;;;;;;11.50;8.90;;;;;;;;;;5080343;28;20480;-73
2022/07/24 05:30:01;;;;;;;13.73;9.15;;;;;;;;;;5080045;28;20101;-71
2022/07/24 05:32:27;;;;;;;10.90;8.63;;;;;;;;;;5055322;28;20067;-74
2022/07/24 05:34:53;;;;;;;12.82;8.90;;;;;;;;;;5057290;28;20067;-72
2022/07/24 05:37:19;;;;;;;12.45;8.90;;;;;;;;;;5072926;28;20044;-75
2022/07/24 05:39:45;;;;;;;13.18;8.07;;;;;;;;;;5057329;28;20040;-72
2022/07/24 05:42:11;;;;;;;12.82;8.55;;;;;;;;;;5073533;28;20047;-73
2022/07/24 05:44:38;;;;;;;11.40;8.43;;;;;;;;;;5091110;28;20044;-74
2022/07/24 05:47:05;;;;;;;12.25;8.82;;;;;;;;;;5091315;28;20059;-75
2022/07/24 05:49:31;;;;;;;12.52;8.20;;;;;;;;;;5056900;28;20047;-75
2022/07/24 05:51:57;;;;;;;9.77;8.00;;;;;;;;;;5073671;28;20400;-74
2022/07/24 05:54:23;;;;;;;11.75;8.57;;;;;;;;;;5073364;28;20453;-75
2022/07/24 05:56:49;;;;;;;10.55;8.52;;;;;;;;;;5056934;28;20040;-74
2022/07/24 05:59:15;;;;;;;9.68;7.90;;;;;;;;;;5073679;28;20093;-73
2022/07/24 06:01:41;;;;;;;10.25;8.60;;;;;;;;;;5048512;28;20502;-75
2022/07/24 06:04:07;;;;;;;10.65;8.68;;;;;;;;;;5090702;28;20119;-75
2022/07/24 06:06:33;;;;;;;10.63;8.70;;;;;;;;;;5072732;28;20048;-71
2022/07/24 06:08:59;;;;;;;11.05;9.10;;;;;;;;;;5091398;28;20046;-74
2022/07/24 06:11:26;;;;;;;12.40;8.15;;;;;;;;;;5073158;28;20040;-75
2022/07/24 06:13:52;;;;;;;10.63;9.00;;;;;;;;;;5056601;28;20036;-74
2022/07/24 06:16:18;;;;;;;12.90;7.80;;;;;;;;;;5071102;28;20040;-75
2022/07/24 06:18:44;;;;;;;11.38;9.27;;;;;;;;;;5056370;28;20515;-75
2022/07/24 06:21:11;;;;;;;13.02;8.93;;;;;;;;;;5071417;28;20109;-75
2022/07/24 06:23:37;;;;;;;11.98;9.00;;;;;;;;;;5070772;28;20070;-75
2022/07/24 06:26:03;;;;;;;9.93;8.43;;;;;;;;;;5073460;28;20046;-76
2022/07/24 06:28:30;;;;;;;11.00;8.65;;;;;;;;;;5080503;28;20048;-75
2022/07/24 06:30:57;;;;;;;10.27;8.50;;;;;;;;;;5073084;28;20051;-76
2022/07/24 06:33:23;;;;;;;10.02;8.50;;;;;;;;;;5073561;28;20536;-75
2022/07/24 06:35:49;;;;;;;11.20;8.23;;;;;;;;;;5083935;28;20036;-75
2022/07/24 06:38:16;;;;;;;16.63;8.93;;;;;;;;;;5073633;28;20047;-76
2022/07/24 06:40:42;;;;;;;10.63;8.43;;;;;;;;;;5073068;28;20120;-76
2022/07/24 06:43:09;;;;;;;10.02;8.27;;;;;;;;;;5073603;28;20093;-75
2022/07/24 06:45:36;;;;;;;10.57;8.30;;;;;;;;;;5073092;28;20495;-76
2022/07/24 06:48:02;;;;;;;10.25;8.38;;;;;;;;;;5090206;28;20043;-76
2022/07/24 06:50:28;;;;;;;11.75;8.20;;;;;;;;;;5095221;28;20051;-76
2022/07/24 06:52:54;;;;;;;10.23;8.07;;;;;;;;;;5074923;28;20165;-77
2022/07/24 06:55:20;;;;;;;8.90;7.43;;;;;;;;;;5077308;28;20485;-76
2022/07/24 06:57:47;;;;;;;9.40;7.30;;;;;;;;;;5076089;28;20054;-77
2022/07/24 07:00:13;;;;;;;9.00;6.93;;;;;;;;;;5077189;28;20047;-76
2022/07/24 07:02:40;;;;;;;9.35;7.50;;;;;;;;;;5076406;28;20488;-74
2022/07/24 07:05:07;;;;;;;8.50;7.13;;;;;;;;;;5082893;28;20034;-77
2022/07/24 07:07:33;;;;;;;9.77;7.43;;;;;;;;;;5076357;28;20507;-75
2022/07/24 07:09:59;;;;;;;9.25;7.05;;;;;;;;;;5076910;28;20496;-76
2022/07/24 07:12:25;;;;;;;9.18;7.28;;;;;;;;;;5059477;28;20044;-76
2022/07/24 07:14:51;;;;;;;9.07;7.03;;;;;;;;;;5075682;28;20089;-74
2022/07/24 07:17:17;;;;;;;8.23;7.18;;;;;;;;;;5056442;28;20049;-74
2022/07/24 07:19:44;;;;;;;8.90;6.18;;;;;;;;;;5035942;28;20047;-75
2022/07/24 07:22:10;;;;;;;10.68;6.80;;;;;;;;;;5062730;28;20080;-75
2022/07/24 07:24:36;;;;;;;10.73;6.05;;;;;;;;;;5082380;28;20492;-75
2022/07/24 07:27:02;;;;;;;6.65;5.60;;;;;;;;;;5091744;28;20369;-74
2022/07/24 07:29:29;;;;;;;7.95;6.05;;;;;;;;;;5087159;28;20036;-74
2022/07/24 07:31:55;;;;;;;7.75;6.30;;;;;;;;;;5076080;28;20040;-74
2022/07/24 07:34:21;;;;;;;8.40;6.32;;;;;;;;;;5076453;28;20055;-74
2022/07/24 07:36:47;;;;;;;8.63;5.78;;;;;;;;;;5080460;28;20052;-72
2022/07/24 07:39:13;;;;;;;7.38;5.60;;;;;;;;;;5075862;28;20396;-75
2022/07/24 07:41:39;;;;;;;6.53;5.68;;;;;;;;;;5075573;28;20527;-74
2022/07/24 07:44:05;;;;;;;8.25;5.47;;;;;;;;;;5076113;28;20089;-74
2022/07/24 07:46:32;;;;;;;6.43;5.70;;;;;;;;;;5059226;28;20456;-74
2022/07/24 07:48:58;;;;;;;7.30;5.35;;;;;;;;;;5058523;28;20412;-74
2022/07/24 07:51:24;;;;;;;7.75;5.65;;;;;;;;;;5083977;28;20047;-74
2022/07/24 07:53:50;;;;;;;8.75;5.20;;;;;;;;;;5080455;28;20048;-74
2022/07/24 07:56:16;;;;;;;7.95;5.18;;;;;;;;;;5074817;28;20071;-74
2022/07/24 07:58:42;;;;;;;7.13;5.03;;;;;;;;;;5050236;28;20059;-74
2022/07/24 08:01:08;;;;;;;7.93;5.50;;;;;;;;;;5057240;28;20046;-74
2022/07/24 08:03:34;;;;;;;7.05;5.22;;;;;;;;;;5074594;28;20492;-74
2022/07/24 08:06:01;;;;;;;6.95;5.28;;;;;;;;;;5074779;28;20481;-74
2022/07/24 08:08:27;;;;;;;7.53;4.75;;;;;;;;;;5093087;28;20500;-74
2022/07/24 08:10:53;;;;;;;8.02;5.30;;;;;;;;;;5064721;28;20032;-74
2022/07/24 08:13:19;;;;;;;8.05;4.40;;;;;;;;;;5080865;28;20411;-74
2022/07/24 08:15:45;;;;;;;7.03;4.60;;;;;;;;;;5090532;28;20064;-74
2022/07/24 08:18:12;;;;;;;6.90;4.70;;;;;;;;;;5060721;28;20556;-74
2022/07/24 08:20:38;;;;;;;5.65;3.95;;;;;;;;;;5071191;28;20500;-76
2022/07/24 08:23:05;;;;;;;5.10;3.67;;;;;;;;;;5081491;28;20075;-75
2022/07/24 08:25:31;;;;;;;5.55;3.55;;;;;;;;;;5078429;28;20047;-75
2022/07/24 08:27:57;;;;;;;5.78;3.53;;;;;;;;;;5043034;28;20079;-76
2022/07/24 08:30:25;;;;;;;4.95;3.40;;;;;;;;;;5074520;28;20499;-75
2022/07/24 08:32:51;;;;;;;6.88;3.33;;;;;;;;;;5066953;28;20044;-75
2022/07/24 08:35:17;;;;;;;6.35;3.38;;;;;;;;;;5074973;28;20554;-75
2022/07/24 08:37:43;;;;;;;4.30;2.88;;;;;;;;;;5074629;28;20040;-75
2022/07/24 08:40:12;;;;;;;5.50;3.40;;;;;;;;;;5074413;28;20040;-75
2022/07/24 08:42:38;;;;;;;5.30;3.30;;;;;;;;;;5074737;28;20040;-75
2022/07/24 08:45:05;;;;;;;4.90;3.10;;;;;;;;;;5074478;28;20040;-75
2022/07/24 08:47:34;;;;;;;4.47;2.88;;;;;;;;;;5076957;28;20028;-75
2022/07/24 08:50:03;;;;;;;5.75;2.80;;;;;;;;;;5057712;28;20040;-75
2022/07/24 08:52:30;;;;;;;4.90;2.70;;;;;;;;;;5074134;28;20068;-75
2022/07/24 08:54:56;;;;;;;5.32;2.42;;;;;;;;;;5073912;28;20087;-75
2022/07/24 08:57:22;;;;;;;4.03;2.78;;;;;;;;;;5065218;28;20046;-74
2022/07/24 08:59:48;;;;;;;4.38;2.92;;;;;;;;;;5095756;28;20485;-71
2022/07/24 09:02:14;;;;;;;4.63;2.88;;;;;;;;;;5077356;28;20435;-76
2022/07/24 09:04:41;;;;;;;4.72;3.13;;;;;;;;;;5074326;28;20064;-76
2022/07/24 09:07:15;;;;;;;3.28;2.50;;;;;;;;;;5074184;28;20068;-76
2022/07/24 09:09:42;;;;;;;4.15;2.85;;;;;;;;;;5074538;28;20425;-76
2022/07/24 09:12:15;;;;;;;5.75;2.72;;;;;;;;;;5073390;28;20078;-74
2022/07/24 09:14:43;;;;;;;3.20;2.40;;;;;;;;;;5074324;28;20503;-74
2022/07/24 09:17:10;;;;;;;4.45;2.60;;;;;;;;;;5067993;28;20561;-75
2022/07/24 09:20:06;;;;;;;4.75;2.38;;;;;;;;;;5070601;28;20128;-75
2022/07/24 09:22:35;;;;;;;3.03;2.25;;;;;;;;;;5047485;28;20397;-71
2022/07/24 09:25:04;;;;;;;4.20;2.10;;;;;;;;;;5056886;28;20507;-75
2022/07/24 09:27:30;;;;;;;5.22;2.08;;;;;;;;;;5059008;28;20087;-72
2022/07/24 09:29:57;;;;;;;3.45;2.20;;;;;;;;;;5073701;28;20051;-74
2022/07/24 09:32:23;;;;;;;6.22;2.50;;;;;;;;;;5057188;28;20051;-72
2022/07/24 09:34:51;;;;;;;4.60;2.53;;;;;;;;;;5073391;28;20050;-74
2022/07/24 09:37:17;;;;;;;3.15;2.30;;;;;;;;;;5074098;28;20039;-73
2022/07/24 09:39:44;;;;;;;4.13;2.47;;;;;;;;;;5073659;28;20079;-74
2022/07/24 09:42:10;;;;;;;3.38;2.22;;;;;;;;;;5073698;28;20048;-75
2022/07/24 09:44:37;;;;;;;3.95;2.40;;;;;;;;;;5073454;28;20119;-72
2022/07/24 09:47:07;;;;;;;3.40;2.20;;;;;;;;;;5073680;28;20085;-69
2022/07/24 09:49:34;;;;;;;5.00;2.40;;;;;;;;;;5091741;28;20035;-67
2022/07/24 09:52:06;;;;;;;3.05;2.30;;;;;;;;;;5073876;28;20043;-67
2022/07/24 09:54:33;;;;;;;4.60;2.60;;;;;;;;;;5090425;28;20126;-68
2022/07/24 09:57:34;;;;;;;5.05;2.88;;;;;;;;;;5057265;28;20040;-67
2022/07/24 10:00:07;;;;;;;4.55;2.60;;;;;;;;;;4998913;28;20042;-69
2022/07/24 10:02:33;;;;;;;4.30;2.40;;;;;;;;;;5078825;28;20048;-68
2022/07/24 10:05:01;;;;;;;4.35;2.22;;;;;;;;;;5072702;28;20043;-69
2022/07/24 10:07:28;;;;;;;4.05;2.20;;;;;;;;;;5073449;28;20063;-69
2022/07/24 10:09:55;;;;;;;5.80;2.45;;;;;;;;;;5056925;28;20036;-68
2022/07/24 10:12:25;;;;;;;4.85;2.20;;;;;;;;;;5073882;28;20036;-68
2022/07/24 10:14:53;;;;;;;3.58;2.28;;;;;;;;;;5090792;28;20036;-69
2022/07/24 10:17:20;;;;;;;4.53;1.90;;;;;;;;;;5066139;28;20048;-70
2022/07/24 10:19:47;;;;;;;10.43;2.78;;;;;;;;;;5070043;28;20028;-68
2022/07/24 10:22:17;;;;;;;3.97;2.40;;;;;;;;;;5079987;28;20032;-68
2022/07/24 10:24:54;;;;;;;5.18;2.15;;;;;;;;;;5072806;28;20098;-67
2022/07/24 10:27:23;;;;;;;3.42;2.42;;;;;;;;;;5092081;28;20489;-67
2022/07/24 10:29:50;;;;;;;3.67;2.22;;;;;;;;;;5080294;28;20051;-69
2022/07/24 10:32:16;;;;;;;5.75;2.17;;;;;;;;;;5079256;28;20086;-69
2022/07/24 10:34:46;;;;;;;3.55;1.85;;;;;;;;;;5097853;28;20032;-68
2022/07/24 10:37:15;;;;;;;4.63;1.80;;;;;;;;;;5076527;28;20074;-68
2022/07/24 10:39:47;;;;;;;3.28;1.92;;;;;;;;;;5095180;28;20040;-68
2022/07/24 10:42:14;;;;;;;3.15;2.05;;;;;;;;;;5095296;28;20507;-67
2022/07/24 10:44:41;;;;;;;4.22;2.20;;;;;;;;;;5095310;28;20056;-67
2022/07/24 10:47:08;;;;;;;4.43;2.15;;;;;;;;;;5104322;28;20031;-68
2022/07/24 10:49:47;;;;;;;3.88;2.40;;;;;;;;;;5095287;28;20067;-68
2022/07/24 10:52:24;;;;;;;3.38;1.98;;;;;;;;;;5083232;28;20092;-68
2022/07/24 10:55:11;;;;;;;2.80;2.00;;;;;;;;;;5095567;28;20039;-67
2022/07/24 10:57:47;;;;;;;3.90;2.13;;;;;;;;;;5077079;28;20062;-67
2022/07/24 11:00:30;;;;;;;3.83;2.20;;;;;;;;;;5104045;28;20043;-67
2022/07/24 11:03:01;;;;;;;3.88;2.10;;;;;;;;;;5060147;28;20036;-67
2022/07/24 11:05:31;;;;;;;4.68;2.40;;;;;;;;;;5094234;28;20076;-68
2022/07/24 11:08:13;;;;;;;3.25;2.00;;;;;;;;;;5076116;28;20549;-68
2022/07/24 11:10:49;;;;;;;5.57;2.10;;;;;;;;;;5076700;28;20217;-68
2022/07/24 11:13:33;;;;;;;4.25;2.17;;;;;;;;;;5094579;28;20048;-68
2022/07/24 11:16:12;;;;;;;4.70;2.30;;;;;;;;;;5094738;28;20043;-68
2022/07/24 11:18:39;;;;;;;3.72;2.10;;;;;;;;;;5077505;28;20036;-67
2022/07/24 11:21:05;;;;;;;3.60;2.30;;;;;;;;;;5093537;28;20056;-68
2022/07/24 11:23:31;;;;;;;3.60;2.05;;;;;;;;;;5075492;28;20036;-68
2022/07/24 11:26:20;;;;;;;4.15;2.15;;;;;;;;;;5094463;28;20492;-68
2022/07/24 11:29:05;;;;;;;4.65;2.15;;;;;;;;;;5047390;28;20040;-68
2022/07/24 11:31:32;;;;;;;3.25;2.10;;;;;;;;;;5074619;28;20064;-68
2022/07/24 11:33:59;;;;;;;4.32;2.20;;;;;;;;;;5075037;28;20079;-68
2022/07/24 11:36:25;;;;;;;3.15;1.90;;;;;;;;;;5094566;28;20437;-68
2022/07/24 11:38:52;;;;;;;3.20;2.00;;;;;;;;;;5106032;28;20050;-68
2022/07/24 11:41:18;;;;;;;3.47;2.00;;;;;;;;;;5094049;28;20473;-69
2022/07/24 11:43:51;;;;;;;5.00;2.10;;;;;;;;;;5094220;28;20036;-69
2022/07/24 11:46:32;;;;;;;5.45;2.17;;;;;;;;;;5086979;28;20411;-71
2022/07/24 11:49:02;;;;;;;4.57;2.15;;;;;;;;;;5078841;28;20107;-72
2022/07/24 11:51:29;;;;;;;4.88;2.25;;;;;;;;;;5075519;28;20047;-72
2022/07/24 11:53:56;;;;;;;3.80;2.13;;;;;;;;;;5075476;28;20040;-72
2022/07/24 11:56:22;;;;;;;3.75;2.10;;;;;;;;;;5093722;28;20036;-71
2022/07/24 11:58:48;;;;;;;4.28;2.10;;;;;;;;;;5094071;28;20047;-73
2022/07/24 12:01:21;;;;;;;3.40;2.10;;;;;;;;;;5093351;28;20036;-72
2022/07/24 12:03:51;;;;;;;4.47;2.30;;;;;;;;;;5059027;28;20173;-73
2022/07/24 12:06:18;;;;;;;2.85;2.30;;;;;;;;;;5075088;28;20040;-73
2022/07/24 12:08:44;;;;;;;3.80;2.35;;;;;;;;;;5075574;28;20093;-72
2022/07/24 12:11:11;;;;;;;2.83;2.20;;;;;;;;;;5074365;28;20048;-73
2022/07/24 12:13:41;;;;;;;3.83;2.33;;;;;;;;;;5093522;28;20368;-73
2022/07/24 12:16:08;;;;;;;4.75;2.45;;;;;;;;;;5067850;28;20143;-73
2022/07/24 12:18:34;;;;;;;2.65;1.90;;;;;;;;;;5094393;28;20043;-72
2022/07/24 12:21:01;;;;;;;3.50;2.17;;;;;;;;;;5074997;28;20060;-72
2022/07/24 12:23:30;;;;;;;3.13;2.30;;;;;;;;;;5057595;28;20048;-72
2022/07/24 12:25:56;;;;;;;4.05;2.50;;;;;;;;;;5075511;28;20090;-73
2022/07/24 12:28:24;;;;;;;3.55;2.20;;;;;;;;;;5087294;28;20043;-72
2022/07/24 12:30:51;;;;;;;4.80;2.35;;;;;;;;;;5059304;28;20492;-73
2022/07/24 12:33:17;;;;;;;3.58;2.17;;;;;;;;;;5077961;28;20047;-73
2022/07/24 12:36:08;;;;;;;4.32;2.50;;;;;;;;;;5074720;28;20075;-73
2022/07/24 12:38:35;;;;;;;4.88;2.45;;;;;;;;;;5074662;28;20032;-70
2022/07/24 12:41:01;;;;;;;5.18;2.22;;;;;;;;;;5073925;28;20496;-71
2022/07/24 12:43:28;;;;;;;3.25;2.20;;;;;;;;;;5074544;28;20507;-72
2022/07/24 12:46:10;;;;;;;3.75;2.10;;;;;;;;;;5074431;28;20048;-72
2022/07/24 12:48:36;;;;;;;3.42;2.10;;;;;;;;;;5074374;28;20050;-72
2022/07/24 12:51:02;;;;;;;5.00;2.40;;;;;;;;;;5073444;28;20064;-72
2022/07/24 12:53:30;;;;;;;5.18;2.30;;;;;;;;;;5071557;28;20101;-72
2022/07/24 12:56:06;;;;;;;3.72;2.38;;;;;;;;;;5067780;28;20036;-72
2022/07/24 12:58:48;;;;;;;4.32;2.00;;;;;;;;;;5061910;28;20040;-72
2022/07/24 13:01:14;;;;;;;4.63;2.28;;;;;;;;;;5081252;28;20396;-71
2022/07/24 13:03:40;;;;;;;3.08;2.15;;;;;;;;;;5082975;28;20071;-72
2022/07/24 13:06:07;;;;;;;3.25;2.10;;;;;;;;;;5092284;28;20035;-73
2022/07/24 13:08:33;;;;;;;4.35;2.30;;;;;;;;;;5080372;28;20397;-72
2022/07/24 13:10:59;;;;;;;6.55;2.50;;;;;;;;;;5097366;28;20048;-72
2022/07/24 13:13:25;;;;;;;3.75;2.30;;;;;;;;;;5087469;28;20052;-72
2022/07/24 13:15:51;;;;;;;3.30;2.20;;;;;;;;;;5072264;28;20493;-71
2022/07/24 13:18:17;;;;;;;2.92;2.20;;;;;;;;;;5089404;28;20044;-73
2022/07/24 13:20:43;;;;;;;3.55;2.15;;;;;;;;;;5081167;28;20058;-71
2022/07/24 13:23:10;;;;;;;3.22;2.40;;;;;;;;;;5079004;28;20052;-73
2022/07/24 13:25:36;;;;;;;4.55;2.35;;;;;;;;;;5087642;28;20048;-71
2022/07/24 13:28:02;;;;;;;4.10;2.15;;;;;;;;;;5099258;28;20039;-72
2022/07/24 13:30:28;;;;;;;3.03;2.10;;;;;;;;;;5079489;28;20523;-72
2022/07/24 13:32:54;;;;;;;3.65;2.10;;;;;;;;;;5075012;28;20040;-73
2022/07/24 13:35:20;;;;;;;3.42;2.10;;;;;;;;;;5105571;28;20049;-72
2022/07/24 13:37:46;;;;;;;3.95;2.33;;;;;;;;;;5110957;28;20122;-72
2022/07/24 13:40:13;;;;;;;4.18;2.10;;;;;;;;;;5109086;28;20391;-71
2022/07/24 13:42:40;;;;;;;3.65;2.30;;;;;;;;;;5083735;28;20048;-72
2022/07/24 13:45:06;;;;;;;5.55;2.25;;;;;;;;;;5076389;28;20044;-71
2022/07/24 13:47:33;;;;;;;4.50;2.33;;;;;;;;;;5081629;28;20097;-73
2022/07/24 13:49:59;;;;;;;3.67;2.30;;;;;;;;;;5068060;28;20055;-72
2022/07/24 13:52:25;;;;;;;3.83;2.28;;;;;;;;;;5087360;28;20508;-73
2022/07/24 13:54:51;;;;;;;3.35;2.20;;;;;;;;;;5092820;28;20511;-72
2022/07/24 13:57:17;;;;;;;4.63;2.45;;;;;;;;;;5082211;28;20488;-72
2022/07/24 13:59:43;;;;;;;3.75;2.10;;;;;;;;;;5104413;28;20480;-71
2022/07/24 14:02:09;;;;;;;5.13;2.55;;;;;;;;;;5094664;28;20043;-72
2022/07/24 14:04:35;;;;;;;3.63;2.30;;;;;;;;;;5084059;28;20039;-72
2022/07/24 14:07:01;;;;;;;3.45;2.30;;;;;;;;;;5096198;28;20040;-72
2022/07/24 14:09:28;;;;;;;3.40;2.40;;;;;;;;;;5076373;28;20047;-73
2022/07/24 14:11:54;;;;;;;4.28;2.10;;;;;;;;;;5112646;28;20036;-72
2022/07/24 14:14:21;;;;;;;4.32;2.28;;;;;;;;;;5082207;28;20074;-73
2022/07/24 14:16:47;;;;;;;4.90;2.25;;;;;;;;;;5080164;28;20119;-72
2022/07/24 14:19:13;;;;;;;4.75;2.30;;;;;;;;;;5072514;28;20074;-72
2022/07/24 14:21:39;;;;;;;3.42;2.20;;;;;;;;;;5085962;28;20053;-72
2022/07/24 14:24:06;;;;;;;3.95;2.33;;;;;;;;;;5073558;28;20042;-72
2022/07/24 14:26:32;;;;;;;3.25;2.30;;;;;;;;;;5066645;28;20045;-73
2022/07/24 14:28:58;;;;;;;4.78;2.40;;;;;;;;;;5077422;28;20068;-72
2022/07/24 14:31:24;;;;;;;3.30;2.35;;;;;;;;;;5084058;28;20040;-72
2022/07/24 14:33:50;;;;;;;3.50;2.20;;;;;;;;;;5080222;28;20094;-73
2022/07/24 14:36:16;;;;;;;4.13;2.00;;;;;;;;;;5087694;28;20031;-73
2022/07/24 14:38:42;;;;;;;2.90;2.03;;;;;;;;;;5074291;28;20028;-71